Time;durP1;ratioP1;P1;durP2;ratioP2;P2;SDS_P1;SDS_P2;PMS_P1;PMS_P2;Temp;Humidity;BMP_temperature;BMP_pressure;BME280_temperature;BME280_humidity;BME280_pressure;Samples;Min_cycle;Max_cycle;Signal;HPM_P1;HPM_P2
2020/12/30 00:00:27;;;;;;;6.50;1.80;;;;;;;8.40;100.00;96354.94;5054042;28;20209;-95
2020/12/30 00:02:53;;;;;;;9.40;2.03;;;;;;;8.43;100.00;96352.84;5054190;28;20202;-94
2020/12/30 00:05:21;;;;;;;2.17;1.97;;;;;;;8.42;100.00;96360.88;5053968;28;20194;-95
2020/12/30 00:07:49;;;;;;;5.40;2.40;;;;;;;8.32;100.00;96366.91;5054128;28;20194;-94
2020/12/30 00:10:19;;;;;;;6.73;1.93;;;;;;;8.34;100.00;96361.53;5054692;28;20210;-94
2020/12/30 00:12:46;;;;;;;8.53;2.60;;;;;;;8.33;100.00;96373.78;5054395;28;20198;-96
2020/12/30 00:15:14;;;;;;;4.60;2.30;;;;;;;8.14;100.00;96363.38;5054536;28;20658;-95
2020/12/30 00:17:42;;;;;;;6.40;2.63;;;;;;;8.14;100.00;96366.00;5053585;28;20284;-96
2020/12/30 00:20:13;;;;;;;3.60;2.07;;;;;;;8.05;100.00;96369.44;5053445;28;20206;-95
2020/12/30 00:22:40;;;;;;;8.40;2.10;;;;;;;8.26;100.00;96359.63;5053478;28;20182;-95
2020/12/30 00:25:08;;;;;;;5.37;2.43;;;;;;;8.15;100.00;96374.69;5053762;28;20213;-94
2020/12/30 00:27:37;;;;;;;3.00;1.83;;;;;;;8.02;100.00;96370.56;5052803;28;20206;-96
2020/12/30 00:30:06;;;;;;;4.77;2.20;;;;;;;8.00;100.00;96379.50;5053282;28;20194;-95
2020/12/30 00:32:33;;;;;;;4.50;2.10;;;;;;;7.98;100.00;96378.84;5053268;28;20194;-96
2020/12/30 00:35:00;;;;;;;2.03;1.60;;;;;;;7.91;100.00;96381.19;5053360;28;20197;-94
2020/12/30 00:37:27;;;;;;;6.90;2.83;;;;;;;7.90;100.00;96381.28;5053434;28;20186;-95
2020/12/30 00:39:53;;;;;;;6.70;2.80;;;;;;;7.97;100.00;96379.81;5053557;28;20240;-94
2020/12/30 00:42:21;;;;;;;4.57;3.03;;;;;;;8.00;100.00;96385.59;5053405;28;20197;-95
2020/12/30 00:44:48;;;;;;;3.43;1.90;;;;;;;7.88;100.00;96384.06;5053372;28;20679;-95
2020/12/30 00:47:15;;;;;;;4.57;2.70;;;;;;;7.67;100.00;96375.53;5053145;28;20201;-94
2020/12/30 00:49:42;;;;;;;8.43;2.97;;;;;;;7.75;100.00;96378.28;5053308;28;20575;-94
2020/12/30 00:52:09;;;;;;;9.97;3.30;;;;;;;7.73;100.00;96382.84;5053220;28;20197;-94
2020/12/30 00:54:36;;;;;;;5.53;2.70;;;;;;;7.73;100.00;96386.28;5053234;28;20201;-95
2020/12/30 00:57:03;;;;;;;4.20;2.50;;;;;;;7.66;100.00;96395.66;5068431;28;20232;-96
2020/12/30 00:59:31;;;;;;;6.30;3.23;;;;;;;7.54;100.00;96391.50;5072696;28;20264;-94
2020/12/30 01:01:58;;;;;;;6.73;3.13;;;;;;;7.55;100.00;96396.63;5073335;28;20274;-95
2020/12/30 01:04:25;;;;;;;4.73;2.63;;;;;;;7.65;100.00;96398.38;5072946;28;20284;-94
2020/12/30 01:06:52;;;;;;;4.97;2.83;;;;;;;7.44;100.00;96390.66;5073385;28;20551;-94
2020/12/30 01:09:19;;;;;;;4.40;2.37;;;;;;;7.46;100.00;96373.06;5073102;28;20615;-95
2020/12/30 01:11:46;;;;;;;2.50;1.30;;;;;;;7.48;100.00;96382.44;5072728;28;20204;-95
2020/12/30 01:14:13;;;;;;;7.23;1.77;;;;;;;7.54;100.00;96386.28;5076241;28;20197;-95
2020/12/30 01:16:41;;;;;;;4.10;1.77;;;;;;;7.65;100.00;96391.34;5077273;28;20216;-95
2020/12/30 01:19:08;;;;;;;5.33;3.70;;;;;;;7.52;100.00;96403.91;5077555;28;20251;-95
2020/12/30 01:21:40;;;;;;;6.20;4.20;;;;;;;7.41;100.00;96396.16;5077109;28;20192;-95
2020/12/30 01:24:07;;;;;;;8.43;3.50;;;;;;;7.13;100.00;96380.28;5076791;28;20642;-93
2020/12/30 01:26:34;;;;;;;3.77;2.53;;;;;;;6.95;100.00;96371.44;5077671;28;20185;-94
2020/12/30 01:29:01;;;;;;;5.17;2.67;;;;;;;7.09;100.00;96378.91;5076712;28;20254;-94
2020/12/30 01:31:28;;;;;;;5.90;2.20;;;;;;;7.31;100.00;96386.53;5076763;28;20280;-95
2020/12/30 01:33:56;;;;;;;3.40;1.80;;;;;;;7.17;100.00;96384.31;5077233;28;20712;-94
2020/12/30 01:36:23;;;;;;;7.50;2.70;;;;;;;6.97;100.00;96377.38;5076765;28;20272;-94
2020/12/30 01:38:50;;;;;;;5.33;2.67;;;;;;;6.81;100.00;96380.50;5076349;28;20319;-94
2020/12/30 01:41:17;;;;;;;2.90;2.30;;;;;;;6.87;100.00;96369.50;5076867;28;20196;-93
2020/12/30 01:43:56;;;;;;;6.43;2.20;;;;;;;7.05;100.00;96375.75;5076290;28;20228;-94
2020/12/30 01:46:34;;;;;;;4.10;2.10;;;;;;;7.19;100.00;96371.91;5076454;28;20177;-96
2020/12/30 01:49:03;;;;;;;9.37;2.20;;;;;;;7.09;100.00;96360.63;5076469;28;20189;-96
2020/12/30 01:51:30;;;;;;;2.97;1.83;;;;;;;7.13;100.00;96364.59;5076746;28;20608;-95
2020/12/30 01:53:58;;;;;;;7.03;2.23;;;;;;;7.13;100.00;96360.22;5076276;28;20198;-95
2020/12/30 01:56:29;;;;;;;7.40;3.13;;;;;;;6.60;100.00;96367.50;5075924;28;20273;-94
2020/12/30 01:58:56;;;;;;;4.90;3.60;;;;;;;6.35;100.00;96366.97;5076451;28;20231;-94
2020/12/30 02:01:28;;;;;;;7.23;3.93;;;;;;;6.53;100.00;96353.31;5076233;28;20201;-95
2020/12/30 02:03:57;;;;;;;10.63;3.30;;;;;;;6.66;100.00;96359.13;5076394;28;20220;-95
2020/12/30 02:06:25;;;;;;;6.50;3.57;;;;;;;6.86;100.00;96355.63;5076283;28;20237;-95
2020/12/30 02:08:53;;;;;;;6.63;4.30;;;;;;;6.80;100.00;96350.94;5076775;28;20220;-95
2020/12/30 02:11:25;;;;;;;4.50;2.70;;;;;;;6.99;100.00;96351.94;5075838;28;20197;-94
2020/12/30 02:14:00;;;;;;;4.33;2.00;;;;;;;6.87;100.00;96352.03;5076096;28;20201;-95
2020/12/30 02:16:28;;;;;;;6.33;2.27;;;;;;;7.06;100.00;96359.09;5075837;28;20193;-94
2020/12/30 02:18:54;;;;;;;10.43;3.27;;;;;;;6.82;100.00;96367.31;5077550;28;20596;-95
2020/12/30 02:21:21;;;;;;;14.70;8.30;;;;;;;6.45;100.00;96358.38;5078120;28;20197;-94
2020/12/30 02:23:51;;;;;;;9.03;4.77;;;;;;;6.63;100.00;96359.41;5077062;28;20200;-94
2020/12/30 02:26:20;;;;;;;5.53;2.47;;;;;;;6.56;100.00;96342.59;5076945;28;20212;-95
2020/12/30 02:28:46;;;;;;;5.70;3.23;;;;;;;6.78;100.00;96345.00;5076662;28;20200;-95
2020/12/30 02:31:13;;;;;;;5.53;2.97;;;;;;;6.85;100.00;96353.13;5078087;28;20300;-94
2020/12/30 02:33:40;;;;;;;6.57;2.13;;;;;;;6.75;100.00;96358.31;5082703;28;20197;-94
2020/12/30 02:36:07;;;;;;;5.90;2.30;;;;;;;6.64;100.00;96354.03;5081973;28;20256;-94
2020/12/30 02:38:34;;;;;;;6.30;2.17;;;;;;;6.71;100.00;96350.88;5075320;28;20224;-94
2020/12/30 02:41:01;;;;;;;7.60;1.50;;;;;;;6.68;100.00;96346.75;5076150;28;20577;-94
2020/12/30 02:43:29;;;;;;;3.87;1.47;;;;;;;6.82;100.00;96348.16;5075645;28;20681;-95
2020/12/30 02:45:56;;;;;;;4.87;2.37;;;;;;;6.89;100.00;96346.69;5075566;28;20205;-94
2020/12/30 02:48:23;;;;;;;4.50;1.80;;;;;;;6.98;100.00;96347.66;5075615;28;20224;-95
2020/12/30 02:50:49;;;;;;;8.33;2.50;;;;;;;6.94;100.00;96357.56;5075391;28;20185;-95
2020/12/30 02:53:16;;;;;;;4.53;3.43;;;;;;;6.60;100.00;96349.22;5075440;28;20208;-93
2020/12/30 02:55:43;;;;;;;6.57;4.80;;;;;;;6.43;100.00;96350.66;5075336;28;20237;-95
2020/12/30 02:58:10;;;;;;;9.33;6.07;;;;;;;6.33;100.00;96352.38;5075377;28;20308;-94
2020/12/30 03:00:38;;;;;;;10.03;5.37;;;;;;;6.38;100.00;96348.44;5074990;28;20674;-94
2020/12/30 03:03:05;;;;;;;13.20;8.87;;;;;;;6.29;100.00;96346.59;5074997;28;20205;-95
2020/12/30 03:05:31;;;;;;;8.40;6.30;;;;;;;6.34;100.00;96338.38;5075108;28;20201;-94
2020/12/30 03:07:58;;;;;;;9.23;5.03;;;;;;;6.37;100.00;96343.34;5074997;28;20216;-95
2020/12/30 03:10:25;;;;;;;6.67;5.20;;;;;;;6.43;100.00;96341.03;5074806;28;20201;-96
2020/12/30 03:12:52;;;;;;;8.30;5.43;;;;;;;6.55;100.00;96331.34;5074669;28;20189;-96
2020/12/30 03:15:19;;;;;;;12.83;6.70;;;;;;;6.56;100.00;96343.44;5074800;28;20197;-95
2020/12/30 03:17:47;;;;;;;6.30;5.23;;;;;;;6.66;100.00;96325.19;5074552;28;20201;-95
2020/12/30 03:20:14;;;;;;;9.97;5.47;;;;;;;6.77;100.00;96330.28;5074956;28;20197;-95
2020/12/30 03:22:41;;;;;;;5.80;4.90;;;;;;;6.48;100.00;96339.81;5074638;28;20251;-96
2020/12/30 03:25:08;;;;;;;11.37;7.10;;;;;;;6.57;100.00;96344.25;5074541;28;20650;-94
2020/12/30 03:27:35;;;;;;;12.97;6.73;;;;;;;6.62;100.00;96331.63;5074801;28;20221;-94
2020/12/30 03:30:02;;;;;;;10.67;3.13;;;;;;;6.65;100.00;96326.13;5074854;28;20216;-94
2020/12/30 03:32:28;;;;;;;6.03;2.97;;;;;;;6.70;100.00;96329.19;5074645;28;20193;-95
2020/12/30 03:34:56;;;;;;;4.10;2.87;;;;;;;6.70;100.00;96329.19;5074361;28;20220;-95
2020/12/30 03:37:23;;;;;;;6.70;2.90;;;;;;;6.65;100.00;96336.56;5074161;28;20212;-95
2020/12/30 03:39:50;;;;;;;5.30;2.73;;;;;;;6.65;100.00;96332.19;5075149;28;20217;-95
2020/12/30 03:42:17;;;;;;;6.00;2.57;;;;;;;6.86;100.00;96332.13;5074343;28;20666;-95
2020/12/30 03:44:44;;;;;;;9.67;2.40;;;;;;;6.91;100.00;96342.16;5074375;28;20200;-95
2020/12/30 03:47:11;;;;;;;3.67;2.47;;;;;;;6.87;100.00;96341.59;5074083;28;20217;-94
2020/12/30 03:49:38;;;;;;;7.20;2.93;;;;;;;6.81;100.00;96339.50;5074416;28;20205;-95
2020/12/30 03:52:06;;;;;;;5.83;3.83;;;;;;;6.82;100.00;96333.34;5074058;28;20255;-94
2020/12/30 03:54:33;;;;;;;7.33;4.73;;;;;;;6.85;100.00;96338.28;5074293;28;20319;-95
2020/12/30 03:56:59;;;;;;;9.43;4.20;;;;;;;6.97;100.00;96340.81;5074111;28;20228;-95
2020/12/30 03:59:26;;;;;;;6.23;3.30;;;;;;;6.86;100.00;96336.53;5073986;28;20235;-95
2020/12/30 04:01:53;;;;;;;11.23;5.17;;;;;;;7.02;100.00;96333.38;5058702;28;20196;-95
2020/12/30 04:04:20;;;;;;;14.03;4.60;;;;;;;7.30;100.00;96324.72;5054009;28;20194;-95
2020/12/30 04:06:47;;;;;;;6.90;4.53;;;;;;;7.57;100.00;96329.28;5053866;28;20205;-96
2020/12/30 04:09:15;;;;;;;5.93;3.67;;;;;;;7.73;100.00;96326.13;5054229;28;20275;-95
2020/12/30 04:11:42;;;;;;;7.10;4.40;;;;;;;7.71;100.00;96332.44;5054183;28;20240;-94
2020/12/30 04:14:09;;;;;;;133.30;73.33;;;;;;;7.68;100.00;96327.47;5053916;28;20198;-95
2020/12/30 04:16:36;;;;;;;15.53;8.57;;;;;;;7.67;100.00;96337.13;5053784;28;20225;-94
2020/12/30 04:19:03;;;;;;;4.27;3.27;;;;;;;7.67;100.00;96337.13;5054367;28;20709;-95
2020/12/30 04:21:30;;;;;;;14.80;8.10;;;;;;;7.63;100.00;96328.72;5053789;28;20630;-95
2020/12/30 04:23:57;;;;;;;29.00;16.57;;;;;;;7.60;100.00;96326.38;5053858;28;20206;-95
2020/12/30 04:26:25;;;;;;;21.17;11.30;;;;;;;7.79;100.00;96325.56;5054257;28;20194;-95
2020/12/30 04:28:52;;;;;;;18.80;13.00;;;;;;;7.94;100.00;96322.50;5053728;28;20205;-95
2020/12/30 04:31:19;;;;;;;9.50;3.87;;;;;;;8.14;100.00;96333.72;5053695;28;20248;-96
2020/12/30 04:33:47;;;;;;;6.73;3.33;;;;;;;8.09;100.00;96334.16;5054183;28;20226;-95
2020/12/30 04:36:14;;;;;;;16.10;8.90;;;;;;;7.95;100.00;96339.84;5053828;28;20198;-95
2020/12/30 04:38:42;;;;;;;40.27;24.47;;;;;;;7.90;100.00;96337.66;5053898;28;20229;-94
2020/12/30 04:41:11;;;;;;;38.43;21.97;;;;;;;7.90;100.00;96344.66;5053555;28;20202;-94
2020/12/30 04:43:42;;;;;;;30.90;19.87;;;;;;;7.83;100.00;96337.41;5053171;28;20201;-94
2020/12/30 04:46:11;;;;;;;10.87;8.07;;;;;;;7.81;100.00;96341.94;5050099;28;20628;-94
2020/12/30 04:48:39;;;;;;;12.63;4.27;;;;;;;7.72;100.00;96340.13;5050941;28;20237;-94
2020/12/30 04:51:06;;;;;;;8.90;4.17;;;;;;;7.51;100.00;96334.22;5052577;28;20617;-94
2020/12/30 04:53:35;;;;;;;47.13;42.23;;;;;;;7.47;100.00;96344.16;5052492;28;20259;-94
2020/12/30 04:56:03;;;;;;;33.63;24.57;;;;;;;7.53;100.00;96355.84;5059294;28;20240;-95
2020/12/30 04:58:31;;;;;;;16.87;13.17;;;;;;;7.71;100.00;96354.19;5054204;28;20713;-94
2020/12/30 05:01:00;;;;;;;19.80;12.00;;;;;;;7.86;100.00;96355.44;5052424;28;20568;-93
2020/12/30 05:03:29;;;;;;;9.73;8.37;;;;;;;7.72;100.00;96361.06;5052670;28;20799;-94
2020/12/30 05:06:00;;;;;;;23.50;12.77;;;;;;;7.57;100.00;96362.47;5052541;28;20223;-94
2020/12/30 05:08:27;;;;;;;11.73;9.00;;;;;;;7.76;100.00;96359.84;5052389;28;20593;-95
2020/12/30 05:10:53;;;;;;;15.00;6.03;;;;;;;7.75;100.00;96357.34;5052544;28;20189;-95
2020/12/30 05:13:20;;;;;;;13.40;9.63;;;;;;;7.82;100.00;96361.88;5052541;28;20662;-95
2020/12/30 05:15:48;;;;;;;15.13;11.53;;;;;;;7.90;100.00;96358.59;5058792;28;20185;-94
2020/12/30 05:18:15;;;;;;;17.33;14.27;;;;;;;7.95;100.00;96355.56;5071918;28;20259;-95
2020/12/30 05:20:45;;;;;;;13.93;9.73;;;;;;;8.24;100.00;96368.56;5074313;28;20193;-94
2020/12/30 05:23:12;;;;;;;13.07;4.67;;;;;;;8.29;100.00;96356.72;5074589;28;20208;-94
2020/12/30 05:25:40;;;;;;;7.13;3.23;;;;;;;8.39;100.00;96361.16;5074711;28;20201;-94
2020/12/30 05:28:09;;;;;;;11.67;7.70;;;;;;;8.38;100.00;96362.09;5072930;28;20212;-94
2020/12/30 05:30:36;;;;;;;20.03;10.93;;;;;;;8.34;100.00;96369.38;5072713;28;20826;-94
2020/12/30 05:33:04;;;;;;;15.57;7.60;;;;;;;8.36;100.00;96369.25;5072474;28;20197;-96
2020/12/30 05:35:33;;;;;;;14.47;6.93;;;;;;;8.17;100.00;96357.84;5074210;28;20197;-93
2020/12/30 05:38:00;;;;;;;8.43;5.77;;;;;;;8.12;100.00;96370.53;5074712;28;20201;-95
2020/12/30 05:40:29;;;;;;;7.90;3.60;;;;;;;8.17;100.00;96378.78;5075009;28;20201;-96
2020/12/30 05:43:10;;;;;;;10.77;4.80;;;;;;;8.15;100.00;96375.50;5073574;28;20658;-95
2020/12/30 05:45:44;;;;;;;10.03;5.23;;;;;;;8.13;100.00;96380.03;5070271;28;20204;-94
2020/12/30 05:48:12;;;;;;;9.40;4.37;;;;;;;8.52;100.00;96379.97;5054059;28;20202;-96
2020/12/30 05:50:49;;;;;;;17.63;10.30;;;;;;;8.41;100.00;96374.91;5054904;28;20286;-93
2020/12/30 05:53:20;;;;;;;14.57;6.50;;;;;;;8.47;100.00;96383.03;5055766;28;20206;-95
2020/12/30 05:55:50;;;;;;;18.60;10.10;;;;;;;8.48;100.00;96373.38;5058631;28;20233;-96
2020/12/30 05:58:18;;;;;;;11.73;8.10;;;;;;;8.63;100.00;96384.22;5060210;28;20246;-96
2020/12/30 06:00:49;;;;;;;16.13;9.17;;;;;;;8.46;100.00;96385.78;5057445;28;20209;-95
2020/12/30 06:03:27;;;;;;;7.37;4.50;;;;;;;8.62;100.00;96383.38;5059545;28;20228;-94
2020/12/30 06:05:57;;;;;;;6.90;5.07;;;;;;;8.60;100.00;96382.72;5059797;28;20237;-96
2020/12/30 06:08:29;;;;;;;7.00;3.73;;;;;;;8.41;100.00;96386.19;5059259;28;20198;-94
2020/12/30 06:10:58;;;;;;;13.60;5.80;;;;;;;8.33;100.00;96388.69;5058174;28;20301;-96
2020/12/30 06:13:31;;;;;;;61.50;43.13;;;;;;;8.29;100.00;96382.91;5063627;28;20665;-94
2020/12/30 06:16:06;;;;;;;29.80;18.07;;;;;;;8.53;100.00;96389.50;5057842;28;20247;-94
2020/12/30 06:18:40;;;;;;;26.20;16.73;;;;;;;8.42;100.00;96389.69;5059301;28;20221;-95
2020/12/30 06:21:11;;;;;;;26.83;16.53;;;;;;;8.58;100.00;96397.75;5061786;28;20636;-91
2020/12/30 06:23:39;;;;;;;13.10;7.50;;;;;;;8.87;100.00;96396.78;5062973;28;20205;-95
2020/12/30 06:26:17;;;;;;;13.73;7.10;;;;;;;8.91;100.00;96396.38;5065766;28;20202;-94
2020/12/30 06:31:22;;;;;;;15.23;8.50;;;;;;;8.79;100.00;96393.09;5444189;22;20226;-94
2020/12/30 06:33:53;;;;;;;12.87;6.67;;;;;;;8.97;100.00;96402.81;5151251;22;20239;-96
2020/12/30 06:36:31;;;;;;;10.07;6.97;;;;;;;9.02;100.00;96397.97;5472051;22;20200;-96
2020/12/30 06:46:36;;;;;;;14.07;11.27;;;;;;;9.37;100.00;96399.03;5105775;28;20285;-95
2020/12/30 06:49:05;;;;;;;14.83;7.50;;;;;;;9.34;100.00;96404.56;5280142;22;20203;-96
2020/12/30 07:28:01;;;;;;;10.67;5.60;;;;;;;10.80;100.00;96377.84;5382680;22;20246;-96
2020/12/30 07:30:33;;;;;;;8.07;3.20;;;;;;;11.00;100.00;96370.53;5052701;28;20343;-96
2020/12/30 07:33:01;;;;;;;5.20;3.17;;;;;;;11.01;100.00;96364.28;5054329;28;20206;-95
2020/12/30 07:35:35;;;;;;;5.27;2.97;;;;;;;10.99;100.00;96358.38;5139835;22;20247;-96
2020/12/30 07:38:06;;;;;;;8.47;2.80;;;;;;;11.12;100.00;96356.94;5090222;28;20197;-96
2020/12/30 07:40:33;;;;;;;6.40;3.50;;;;;;;11.12;100.00;96356.13;5122246;22;20232;-96
2020/12/30 07:45:37;;;;;;;6.33;3.23;;;;;;;11.00;100.00;96352.94;5549860;22;20443;-96
2020/12/30 07:51:05;;;;;;;7.70;4.00;;;;;;;11.39;100.00;96339.22;5273330;22;20234;31
2020/12/30 07:53:32;;;;;;;7.07;3.40;;;;;;;11.52;100.00;96341.41;5031915;28;20219;-94
2020/12/30 07:55:59;;;;;;;9.97;4.07;;;;;;;11.65;100.00;96339.94;5029608;28;20705;-92
2020/12/30 07:58:26;;;;;;;10.23;3.47;;;;;;;11.82;100.00;96339.94;5030796;28;20175;-96
2020/12/30 08:00:54;;;;;;;11.30;3.07;;;;;;;11.86;100.00;96338.66;5039341;28;20183;-95
2020/12/30 08:03:22;;;;;;;9.37;2.60;;;;;;;11.90;100.00;96329.44;5038181;28;20207;-94
2020/12/30 08:05:51;;;;;;;8.93;2.67;;;;;;;12.18;100.00;96318.53;5038679;28;20183;-94
2020/12/30 08:08:18;;;;;;;10.97;3.37;;;;;;;12.15;100.00;96306.50;5038670;28;20259;-94
2020/12/30 08:10:48;;;;;;;12.03;2.93;;;;;;;12.19;100.00;96309.63;5033437;28;20217;-94
2020/12/30 08:13:16;;;;;;;5.83;3.10;;;;;;;11.99;100.00;96310.00;5022698;28;20267;-95
2020/12/30 08:15:53;;;;;;;7.23;3.00;;;;;;;11.83;100.00;96305.53;5033425;28;20196;-93
2020/12/30 08:18:20;;;;;;;5.00;2.10;;;;;;;11.89;100.00;96299.66;5008057;28;20207;-96
2020/12/30 08:20:47;;;;;;;4.70;2.50;;;;;;;12.22;100.00;96302.22;5014268;28;20200;-96
2020/12/30 08:23:18;;;;;;;7.67;2.90;;;;;;;12.19;100.00;96294.66;5011370;28;20203;-96
2020/12/30 08:25:48;;;;;;;6.97;3.40;;;;;;;12.09;100.00;96296.66;5010015;28;20268;-96
2020/12/30 08:28:15;;;;;;;6.53;3.30;;;;;;;11.86;100.00;96297.34;5009082;28;20224;-96
2020/12/30 08:30:43;;;;;;;7.97;3.23;;;;;;;11.67;100.00;96297.63;5011523;28;20180;-95
2020/12/30 08:33:12;;;;;;;3.97;3.23;;;;;;;11.85;100.00;96294.88;5006085;28;20255;-96
2020/12/30 08:35:44;;;;;;;8.53;3.40;;;;;;;11.93;100.00;96302.75;5001425;28;20204;-96
2020/12/30 08:38:13;;;;;;;6.40;4.47;;;;;;;12.00;100.00;96300.28;5001884;28;20279;-96
2020/12/30 08:40:42;;;;;;;5.53;3.43;;;;;;;11.98;100.00;96297.81;5001218;28;20188;-95
2020/12/30 08:43:35;;;;;;;7.83;2.93;;;;;;;11.73;100.00;96291.72;4998801;28;20278;-96
2020/12/30 08:46:18;;;;;;;3.53;2.47;;;;;;;11.68;100.00;96299.28;4996749;28;20215;-96
2020/12/30 08:48:48;;;;;;;6.90;2.63;;;;;;;11.93;100.00;96297.50;4996802;28;20196;-96
2020/12/30 08:51:32;;;;;;;6.47;2.40;;;;;;;12.12;100.00;96301.56;4998488;28;20204;-96
2020/12/30 08:53:59;;;;;;;8.10;2.67;;;;;;;12.27;100.00;96299.91;5002996;28;20181;-95
2020/12/30 08:56:26;;;;;;;15.43;3.13;;;;;;;12.17;100.00;96286.09;5000580;28;20219;-96
2020/12/30 08:58:55;;;;;;;9.03;3.03;;;;;;;12.36;100.00;96287.53;5000748;28;20220;-96
2020/12/30 09:01:23;;;;;;;8.23;2.97;;;;;;;12.26;100.00;96287.75;4999633;28;20220;-96
2020/12/30 09:03:52;;;;;;;4.70;2.70;;;;;;;12.04;100.00;96272.63;4996550;28;20290;-95
2020/12/30 09:06:28;;;;;;;7.67;2.83;;;;;;;12.06;100.00;96276.75;4997555;28;20196;-96
2020/12/30 09:08:56;;;;;;;4.67;2.03;;;;;;;12.27;100.00;96262.22;5015802;28;20207;-96
2020/12/30 09:11:23;;;;;;;7.23;2.43;;;;;;;12.20;100.00;96261.25;5019644;28;20234;-96
2020/12/30 09:13:50;;;;;;;6.33;2.37;;;;;;;12.31;100.00;96255.59;5019140;28;20196;-95
2020/12/30 09:16:17;;;;;;;6.17;2.27;;;;;;;12.49;100.00;96253.56;5016260;28;20631;-95
2020/12/30 09:18:51;;;;;;;5.60;2.17;;;;;;;12.19;100.00;96260.38;5016401;28;20715;-96
2020/12/30 09:21:27;;;;;;;6.70;2.53;;;;;;;12.02;100.00;96254.38;5019363;28;20251;-96
2020/12/30 09:23:54;;;;;;;6.50;2.10;;;;;;;11.92;100.00;96259.00;5022123;28;20222;-96
2020/12/30 09:26:28;;;;;;;11.77;3.00;;;;;;;12.09;100.00;96255.34;5019548;28;20676;-96
2020/12/30 09:28:55;;;;;;;7.30;2.47;;;;;;;12.66;100.00;96250.84;5019792;28;20274;-96
2020/12/30 09:31:23;;;;;;;12.73;4.83;;;;;;;13.03;100.00;96235.16;5017331;28;20195;-96
2020/12/30 09:33:54;;;;;;;5.10;1.90;;;;;;;12.53;100.00;96236.41;5025905;28;20171;-96
2020/12/30 09:36:21;;;;;;;11.30;3.63;;;;;;;12.82;100.00;96240.25;5026010;28;20196;-96
2020/12/30 09:38:56;;;;;;;8.77;2.23;;;;;;;12.68;100.00;96233.03;5026625;28;20219;-96
2020/12/30 09:41:24;;;;;;;8.90;2.60;;;;;;;12.50;100.00;96228.81;5028042;28;20183;-96
2020/12/30 09:43:54;;;;;;;7.90;2.80;;;;;;;12.34;100.00;96221.00;5030637;28;20211;-96
2020/12/30 09:46:23;;;;;;;5.90;2.37;;;;;;;12.22;100.00;96230.25;5028753;28;20215;-96
2020/12/30 09:48:51;;;;;;;5.00;2.30;;;;;;;12.19;100.00;96222.69;5031071;28;20664;-96
2020/12/30 09:51:19;;;;;;;4.23;1.90;;;;;;;12.21;100.00;96237.34;5032399;28;20199;-96
2020/12/30 09:53:51;;;;;;;9.43;2.80;;;;;;;12.30;100.00;96224.97;5030753;28;20199;-95
2020/12/30 09:56:18;;;;;;;4.67;2.10;;;;;;;12.09;100.00;96221.09;5027189;28;20242;-96
2020/12/30 09:58:46;;;;;;;9.83;3.00;;;;;;;12.17;100.00;96229.97;5032953;28;20223;-96
2020/12/30 10:01:17;;;;;;;10.33;3.07;;;;;;;12.05;100.00;96225.06;5037011;28;20188;-95
2020/12/30 10:03:48;;;;;;;6.30;2.90;;;;;;;12.09;100.00;96223.72;5038245;28;20199;-96
2020/12/30 10:06:21;;;;;;;9.30;3.57;;;;;;;12.04;100.00;96220.75;5040286;28;20195;-96
2020/12/30 10:11:40;;;;;;;7.13;2.80;;;;;;;11.97;100.00;96203.97;5036726;28;20251;-96
2020/12/30 10:14:08;;;;;;;18.67;8.60;;;;;;;12.62;100.00;96200.28;5034718;28;20230;-96
2020/12/30 10:16:35;;;;;;;12.67;6.53;;;;;;;12.66;100.00;96187.56;5034070;28;20204;-96
2020/12/30 10:21:54;;;;;;;18.53;7.80;;;;;;;12.76;100.00;96177.63;5038008;28;20239;-96
2020/12/30 10:24:27;;;;;;;44.83;22.47;;;;;;;12.94;100.00;96175.53;5030830;28;20203;-96
2020/12/30 10:26:55;;;;;;;10.40;6.77;;;;;;;12.63;100.00;96177.38;5034470;28;20179;-96
2020/12/30 10:32:07;;;;;;;14.40;6.73;;;;;;;12.71;100.00;96179.94;5171583;22;20212;-96
2020/12/30 10:34:35;;;;;;;9.97;5.60;;;;;;;12.70;100.00;96178.31;5092692;28;20196;-96
2020/12/30 10:37:04;;;;;;;5.03;3.10;;;;;;;12.58;100.00;96177.91;5095446;28;20193;-96
2020/12/30 10:39:33;;;;;;;13.40;4.67;;;;;;;12.62;100.00;96184.47;5092061;28;20281;-95
2020/12/30 10:42:02;;;;;;;5.83;2.93;;;;;;;13.04;100.00;96180.56;5095047;28;20197;-96
2020/12/30 10:44:34;;;;;;;9.20;5.90;;;;;;;12.83;100.00;96170.66;5091951;28;20238;-96
2020/12/30 10:55:08;;;;;;;7.70;2.57;;;;;;;12.78;100.00;96159.78;5032197;28;20229;-96
2020/12/30 10:57:37;;;;;;;6.37;2.97;;;;;;;12.76;100.00;96145.97;5034855;28;20199;-96
2020/12/30 11:00:05;;;;;;;10.83;3.70;;;;;;;12.83;100.00;96147.72;5036056;28;20214;-96
2020/12/30 11:02:33;;;;;;;8.57;3.37;;;;;;;12.92;100.00;96137.13;5038906;28;20187;-96
2020/12/30 11:05:03;;;;;;;4.70;2.80;;;;;;;12.77;100.00;96131.78;5037346;28;20208;-96
2020/12/30 11:07:35;;;;;;;4.70;3.27;;;;;;;12.81;100.00;96148.91;5040055;28;20176;-96
2020/12/30 11:10:03;;;;;;;4.40;2.43;;;;;;;13.37;100.00;96133.66;5037312;28;20195;-96
2020/12/30 11:12:33;;;;;;;12.07;3.00;;;;;;;13.07;100.00;96130.09;5036013;28;20200;-96
2020/12/30 11:15:00;;;;;;;7.73;3.50;;;;;;;12.98;100.00;96115.31;5037353;28;20214;-96
2020/12/30 11:17:29;;;;;;;4.87;3.07;;;;;;;12.91;100.00;96123.09;5035395;28;20199;-96
2020/12/30 11:20:04;;;;;;;3.87;2.77;;;;;;;12.81;100.00;96133.06;5037581;28;20252;-96
2020/12/30 11:22:33;;;;;;;6.87;2.43;;;;;;;12.77;100.00;96131.78;5036077;28;20203;-96
2020/12/30 11:25:00;;;;;;;5.97;3.13;;;;;;;12.72;100.00;96132.31;5172313;22;20223;-96
2020/12/30 11:27:27;;;;;;;4.93;2.40;;;;;;;12.72;100.00;96123.59;5095763;28;20185;-96
2020/12/30 11:29:58;;;;;;;4.93;2.60;;;;;;;12.71;100.00;96111.38;5096847;28;20193;-96
2020/12/30 11:32:25;;;;;;;3.70;2.37;;;;;;;12.85;100.00;96110.66;5313885;22;20219;-96
2020/12/30 11:34:55;;;;;;;8.63;2.63;;;;;;;12.89;100.00;96117.22;5110415;22;20236;-96
2020/12/30 11:37:22;;;;;;;9.13;2.40;;;;;;;12.99;100.00;96111.66;5076641;28;20184;-96
2020/12/30 11:42:26;;;;;;;9.93;3.37;;;;;;;13.17;100.00;96095.53;5195478;22;20264;-96
2020/12/30 11:47:29;;;;;;;7.20;3.10;;;;;;;13.15;100.00;96094.88;5080971;22;20239;-96
2020/12/30 11:49:59;;;;;;;6.03;2.60;;;;;;;13.23;100.00;96076.34;5078616;28;20200;-96
2020/12/30 11:55:01;;;;;;;9.67;3.27;;;;;;;13.38;100.00;96090.41;5026216;28;20595;-96
2020/12/30 11:57:28;;;;;;;6.97;3.27;;;;;;;13.39;100.00;96092.06;5027868;28;20191;-95
2020/12/30 11:59:56;;;;;;;3.67;2.07;;;;;;;13.57;100.00;96084.59;5028522;28;20237;-95
2020/12/30 12:13:04;;;;;;;5.87;3.27;;;;;;;13.71;100.00;96085.59;6158669;22;20189;-95
2020/12/30 16:55:15;;;;;;;22.97;13.83;;;;;;;10.47;100.00;96125.41;6082640;22;21668;-96
2020/12/30 16:57:43;;;;;;;17.93;10.97;;;;;;;10.53;100.00;96134.44;5049600;28;20179;-94
2020/12/30 17:26:55;;;;;;;16.00;5.90;;;;;;;10.04;100.00;96139.53;5212392;22;20337;-96
2020/12/30 17:46:38;;;;;;;17.53;9.50;;;;;;;9.92;100.00;96139.00;1800141;22;20600;-89
2020/12/30 18:14:17;;;;;;;7.80;5.50;;;;;;;9.74;100.00;96144.31;5685377;22;20238;31
2020/12/30 18:16:49;;;;;;;7.20;4.47;;;;;;;9.70;100.00;96140.38;5619350;22;20473;-94
2020/12/30 18:33:14;;;;;;;10.73;3.60;;;;;;;9.60;100.00;96152.78;5529952;22;20240;-93
2020/12/30 19:00:36;;;;;;;18.57;8.50;;;;;;;9.46;100.00;96177.78;5338070;22;20259;-95
2020/12/30 19:03:11;;;;;;;12.87;4.83;;;;;;;9.36;100.00;96187.53;5198994;22;20238;-95
2020/12/30 19:16:36;;;;;;;10.53;5.50;;;;;;;9.16;100.00;96198.19;5433043;23;20205;-95
2020/12/30 19:36:01;;;;;;;5.87;4.13;;;;;;;8.82;100.00;96211.97;5933859;22;20186;-96
2020/12/30 20:30:33;;;;;;;12.13;4.20;;;;;;;8.77;100.00;96210.81;6222876;22;20187;31
2020/12/30 21:04:21;;;;;;;7.90;2.60;;;;;;;8.60;100.00;96228.16;5601739;22;20218;31
2020/12/30 21:12:44;;;;;;;10.93;2.87;;;;;;;8.51;100.00;96223.78;6193011;22;20269;31
2020/12/30 21:51:20;;;;;;;7.40;2.40;;;;;;;8.53;100.00;96196.47;5054395;28;20274;-96
2020/12/30 22:09:19;;;;;;;7.43;2.93;;;;;;;8.45;100.00;96204.25;5253699;22;20239;-96
2020/12/30 22:11:52;;;;;;;10.53;3.23;;;;;;;8.45;100.00;96198.16;5080470;28;20174;-96
2020/12/30 22:14:19;;;;;;;5.60;2.63;;;;;;;8.41;100.00;96196.81;5079652;28;20226;-95
2020/12/30 22:16:46;;;;;;;11.10;2.47;;;;;;;8.47;100.00;96201.47;5078550;28;20206;-96